Time;durP1;ratioP1;P1;durP2;ratioP2;P2;SDS_P1;SDS_P2;PMS_P1;PMS_P2;Temp;Humidity;BMP_temperature;BMP_pressure;BME280_temperature;BME280_humidity;BME280_pressure;Samples;Min_cycle;Max_cycle;Signal;HPM_P1;HPM_P2
2021/01/21 00:00:12;;;;;;;3.20;1.73;;;7.30;95.60;;;;;;5014152;28;20862;-83
2021/01/21 00:02:38;;;;;;;1.30;1.20;;;7.30;95.20;;;;;;5012248;28;20262;-84
2021/01/21 00:05:06;;;;;;;2.75;2.05;;;7.30;95.30;;;;;;5014191;28;20199;-82
2021/01/21 00:07:32;;;;;;;1.40;1.30;;;7.30;95.20;;;;;;5013718;28;20308;-84
2021/01/21 00:09:59;;;;;;;2.13;1.20;;;7.30;95.30;;;;;;5013834;28;20246;-84
2021/01/21 00:12:25;;;;;;;2.35;1.70;;;7.30;95.40;;;;;;5013691;28;20286;-83
2021/01/21 00:14:53;;;;;;;1.77;1.25;;;7.20;95.70;;;;;;5013997;28;20238;-83
2021/01/21 00:17:19;;;;;;;1.70;1.58;;;7.20;95.10;;;;;;5012720;28;20674;-85
2021/01/21 00:19:45;;;;;;;1.63;1.52;;;7.30;95.20;;;;;;5013978;28;20194;-83
2021/01/21 00:22:12;;;;;;;2.33;1.30;;;7.30;95.20;;;;;;5013817;28;20204;-84
2021/01/21 00:24:38;;;;;;;2.60;2.40;;;7.30;95.10;;;;;;5013848;28;20243;-84
2021/01/21 00:27:04;;;;;;;2.45;1.90;;;7.20;95.40;;;;;;5013685;28;20577;-83
2021/01/21 00:29:31;;;;;;;1.58;1.48;;;7.20;95.30;;;;;;5013948;28;20659;-85
2021/01/21 00:31:59;;;;;;;2.00;1.80;;;7.20;95.50;;;;;;5012464;28;20215;-84
2021/01/21 00:34:25;;;;;;;3.35;2.10;;;7.10;95.40;;;;;;5013691;28;20207;-83
2021/01/21 00:36:52;;;;;;;2.72;2.30;;;7.20;94.90;;;;;;5013719;28;20239;-84
2021/01/21 00:39:18;;;;;;;1.52;1.40;;;7.20;94.80;;;;;;5011929;28;20290;-83
2021/01/21 00:41:45;;;;;;;2.15;1.50;;;7.20;94.90;;;;;;5013421;28;20227;-83
2021/01/21 00:44:11;;;;;;;2.47;1.70;;;7.20;95.50;;;;;;5013641;28;20254;-84
2021/01/21 00:46:38;;;;;;;2.97;2.33;;;7.10;95.50;;;;;;5013503;28;20231;-84
2021/01/21 00:49:05;;;;;;;3.17;2.22;;;7.00;95.40;;;;;;5012837;28;20294;-84
2021/01/21 00:51:31;;;;;;;2.70;1.90;;;7.00;95.50;;;;;;5012626;28;20302;-85
2021/01/21 00:53:58;;;;;;;1.20;1.10;;;7.00;96.00;;;;;;5013620;28;20270;-84
2021/01/21 00:56:25;;;;;;;2.33;1.60;;;7.00;95.70;;;;;;5013186;28;20294;-83
2021/01/21 00:58:53;;;;;;;3.28;1.85;;;6.90;96.20;;;;;;5013720;28;20294;-82
2021/01/21 01:01:19;;;;;;;3.08;1.75;;;6.90;95.70;;;;;;5013553;28;20272;-83
2021/01/21 01:03:46;;;;;;;1.92;1.75;;;7.00;95.10;;;;;;5011987;28;20207;-84
2021/01/21 01:06:13;;;;;;;1.95;1.45;;;7.10;95.10;;;;;;5011958;28;20297;-83
2021/01/21 01:08:39;;;;;;;3.30;1.50;;;7.10;95.20;;;;;;5013294;28;20627;-83
2021/01/21 01:11:06;;;;;;;1.55;1.40;;;7.20;95.50;;;;;;5013172;28;20638;-83
2021/01/21 01:13:32;;;;;;;7.07;1.33;;;7.20;95.20;;;;;;5013277;28;20353;-83
2021/01/21 01:15:58;;;;;;;4.28;1.70;;;7.20;95.00;;;;;;5013368;28;20208;-83
2021/01/21 01:18:25;;;;;;;2.10;1.63;;;7.30;94.80;;;;;;5011891;28;20207;-84
2021/01/21 01:20:51;;;;;;;1.38;0.90;;;7.30;94.70;;;;;;5013275;28;20263;-85
2021/01/21 01:23:18;;;;;;;2.15;1.30;;;7.30;94.70;;;;;;5013620;28;20294;-84
2021/01/21 01:25:45;;;;;;;1.25;1.00;;;7.30;95.20;;;;;;5013329;28;20350;-85
2021/01/21 01:28:11;;;;;;;1.52;1.42;;;7.40;94.90;;;;;;5016267;28;20213;-84
2021/01/21 01:30:37;;;;;;;1.20;1.10;;;7.40;95.00;;;;;;5014825;28;20659;-83
2021/01/21 01:33:04;;;;;;;1.80;1.70;;;7.40;95.00;;;;;;5013283;28;20462;-84
2021/01/21 01:35:30;;;;;;;3.03;1.70;;;7.40;94.90;;;;;;5029883;28;20222;-84
2021/01/21 01:37:56;;;;;;;1.55;1.08;;;7.50;94.90;;;;;;5024923;28;20342;-84
2021/01/21 01:40:26;;;;;;;1.43;1.30;;;7.50;94.90;;;;;;5031920;28;20278;-84
2021/01/21 01:42:52;;;;;;;1.65;1.55;;;7.40;95.20;;;;;;5029705;28;20937;-83
2021/01/21 01:45:18;;;;;;;2.30;1.87;;;7.40;95.60;;;;;;5014050;28;20236;-84
2021/01/21 01:47:46;;;;;;;1.97;1.77;;;7.30;95.30;;;;;;5012788;28;20482;-83
2021/01/21 01:50:15;;;;;;;2.40;1.73;;;7.30;95.20;;;;;;5012856;28;20465;-84
2021/01/21 01:52:42;;;;;;;2.00;1.48;;;7.30;95.20;;;;;;5012855;28;20250;-83
2021/01/21 01:55:11;;;;;;;1.93;1.50;;;7.30;95.00;;;;;;5012775;28;20732;-82
2021/01/21 01:57:38;;;;;;;1.55;1.45;;;7.30;95.10;;;;;;5013370;28;20549;-84
2021/01/21 02:00:07;;;;;;;1.40;1.30;;;7.40;95.30;;;;;;5012986;28;20235;-84
2021/01/21 02:02:34;;;;;;;1.50;1.40;;;7.40;95.00;;;;;;5014116;28;20323;-82
2021/01/21 02:05:01;;;;;;;2.05;1.48;;;7.40;95.00;;;;;;5016552;28;20208;-83
2021/01/21 02:07:27;;;;;;;1.98;1.33;;;7.40;94.80;;;;;;5016531;28;20245;-83
2021/01/21 02:09:56;;;;;;;1.70;1.27;;;7.40;94.90;;;;;;5016607;28;20318;-83
2021/01/21 02:12:34;;;;;;;2.10;1.88;;;7.40;94.70;;;;;;5016211;28;20450;-84
2021/01/21 02:15:08;;;;;;;1.30;1.20;;;7.40;95.10;;;;;;5016273;28;20657;-83
2021/01/21 02:17:41;;;;;;;1.50;1.20;;;7.40;95.10;;;;;;5014739;28;20233;-83
2021/01/21 02:20:48;;;;;;;1.50;1.03;;;7.30;95.00;;;;;;5016376;28;20223;-82
2021/01/21 02:23:46;;;;;;;1.63;1.13;;;7.40;95.30;;;;;;5015967;28;20454;-82
2021/01/21 02:26:19;;;;;;;1.30;1.20;;;7.40;95.00;;;;;;5016011;28;20253;-83
2021/01/21 02:29:03;;;;;;;1.60;1.17;;;7.40;95.20;;;;;;5016171;28;20512;-82
2021/01/21 02:31:43;;;;;;;3.13;0.97;;;7.40;95.30;;;;;;5015979;28;20454;-82
2021/01/21 02:34:16;;;;;;;1.90;1.23;;;7.40;95.60;;;;;;5015486;28;20460;-83
2021/01/21 02:36:51;;;;;;;2.47;2.17;;;7.40;96.00;;;;;;5016197;28;20458;-83
2021/01/21 02:39:18;;;;;;;1.53;1.37;;;7.50;96.40;;;;;;5015918;28;20500;-82
2021/01/21 02:41:45;;;;;;;1.33;1.00;;;7.40;96.80;;;;;;5015555;28;20506;-82
2021/01/21 02:44:12;;;;;;;0.68;0.68;;;7.40;96.80;;;;;;5015829;28;20298;-82
2021/01/21 02:46:38;;;;;;;0.80;0.70;;;8.10;95.00;;;;;;4997701;28;20290;-83
2021/01/21 02:49:05;;;;;;;0.70;0.70;;;8.70;93.90;;;;;;5015540;28;20542;-82
2021/01/21 02:51:40;;;;;;;1.13;0.70;;;9.20;92.30;;;;;;5016498;28;20302;-82
2021/01/21 02:54:34;;;;;;;1.00;0.60;;;9.40;91.90;;;;;;5016481;28;20576;-82
2021/01/21 02:57:06;;;;;;;2.77;0.80;;;9.20;92.40;;;;;;5017654;28;20455;-82
2021/01/21 02:59:38;;;;;;;0.70;0.70;;;9.00;92.70;;;;;;5030261;28;20481;-81
2021/01/21 03:02:08;;;;;;;0.90;0.80;;;8.80;93.40;;;;;;5030792;28;20525;-82
2021/01/21 03:04:38;;;;;;;1.20;0.77;;;8.60;93.40;;;;;;5019153;28;20541;-84
2021/01/21 03:07:06;;;;;;;1.37;0.80;;;8.60;93.10;;;;;;5025474;28;20449;-81
2021/01/21 03:09:34;;;;;;;0.90;0.60;;;8.60;93.20;;;;;;5036812;28;20419;-83
2021/01/21 03:12:16;;;;;;;1.47;0.63;;;8.60;92.80;;;;;;5036700;28;20462;-82
2021/01/21 03:14:42;;;;;;;0.70;0.60;;;8.60;92.90;;;;;;5018614;28;20485;-84
2021/01/21 03:17:09;;;;;;;0.77;0.60;;;8.60;92.90;;;;;;5015957;28;20454;-83
2021/01/21 03:19:36;;;;;;;0.80;0.80;;;8.50;92.80;;;;;;5015283;28;20526;-83
2021/01/21 03:22:02;;;;;;;1.33;0.80;;;8.50;93.20;;;;;;5014920;28;20597;-84
2021/01/21 03:24:30;;;;;;;1.23;0.83;;;8.40;93.10;;;;;;5015034;28;20898;-83
2021/01/21 03:26:56;;;;;;;1.00;0.70;;;8.40;93.40;;;;;;5014773;28;20513;-82
2021/01/21 03:29:22;;;;;;;1.23;0.93;;;8.40;93.30;;;;;;5015002;28;20883;-84
2021/01/21 03:31:49;;;;;;;2.10;1.00;;;8.40;93.50;;;;;;5016706;28;20459;-84
2021/01/21 03:34:15;;;;;;;1.90;0.80;;;8.40;93.50;;;;;;5014473;28;20450;-83
2021/01/21 03:36:42;;;;;;;1.33;0.90;;;8.50;92.60;;;;;;5014585;28;20478;-81
2021/01/21 03:39:08;;;;;;;0.90;0.70;;;8.60;92.10;;;;;;5014706;28;20457;-83
2021/01/21 03:41:38;;;;;;;0.77;0.70;;;8.80;91.50;;;;;;5014067;28;20492;-82
2021/01/21 03:44:06;;;;;;;1.13;0.93;;;8.80;91.70;;;;;;4980051;28;20454;-83
2021/01/21 03:46:32;;;;;;;1.50;0.90;;;8.80;91.50;;;;;;5014411;28;20461;-85
2021/01/21 03:48:59;;;;;;;0.80;0.77;;;8.90;91.40;;;;;;5013109;28;20601;-84
2021/01/21 03:51:25;;;;;;;0.70;0.53;;;8.90;91.60;;;;;;5014304;28;20617;-82
2021/01/21 03:53:52;;;;;;;0.80;0.70;;;8.80;91.90;;;;;;5014122;28;20572;-84
2021/01/21 03:56:18;;;;;;;0.77;0.77;;;8.80;92.00;;;;;;5014102;28;20901;-83
2021/01/21 03:58:45;;;;;;;2.33;0.90;;;8.80;91.80;;;;;;5014355;28;20499;-82
2021/01/21 04:01:12;;;;;;;2.40;1.00;;;8.80;92.00;;;;;;5013832;28;20530;-83
2021/01/21 04:03:38;;;;;;;1.47;1.00;;;8.80;92.00;;;;;;5013920;28;20545;-83
2021/01/21 04:06:05;;;;;;;2.63;0.80;;;8.80;91.80;;;;;;5014370;28;20553;-83
2021/01/21 04:08:32;;;;;;;1.23;1.10;;;8.80;91.80;;;;;;5014162;28;20529;-83
2021/01/21 04:10:58;;;;;;;1.77;1.03;;;8.70;92.10;;;;;;5013631;28;20846;-84
2021/01/21 04:13:25;;;;;;;2.23;1.10;;;8.70;92.10;;;;;;5013787;28;20489;-82
2021/01/21 04:15:52;;;;;;;0.83;0.83;;;8.70;92.60;;;;;;5013568;28;20508;-83
2021/01/21 04:18:18;;;;;;;1.47;1.00;;;8.60;92.30;;;;;;5012272;28;20575;-83
2021/01/21 04:20:44;;;;;;;0.80;0.80;;;8.60;92.30;;;;;;5013550;28;20526;-83
2021/01/21 04:23:11;;;;;;;1.13;1.03;;;8.60;92.20;;;;;;5013541;28;20553;-84
2021/01/21 04:25:37;;;;;;;1.30;0.93;;;8.50;92.40;;;;;;5012367;28;20573;-81
2021/01/21 04:28:04;;;;;;;1.63;0.93;;;8.50;92.30;;;;;;5013430;28;20541;-84
2021/01/21 04:30:31;;;;;;;1.37;1.20;;;8.60;92.10;;;;;;5013434;28;20497;-83
2021/01/21 04:32:58;;;;;;;2.60;1.20;;;8.60;92.10;;;;;;5012061;28;20508;-82
2021/01/21 04:35:24;;;;;;;3.40;1.10;;;8.70;92.20;;;;;;5013323;28;20958;-84
2021/01/21 04:37:53;;;;;;;0.93;0.83;;;8.50;92.20;;;;;;5012964;28;20529;-83
2021/01/21 04:40:20;;;;;;;1.40;1.10;;;8.40;92.70;;;;;;5013207;28;20581;-85
2021/01/21 04:42:47;;;;;;;2.40;1.40;;;8.30;92.70;;;;;;5012944;28;20564;-84
2021/01/21 04:45:14;;;;;;;1.83;1.67;;;8.20;93.00;;;;;;5013038;28;20545;-83
2021/01/21 04:47:41;;;;;;;1.30;1.20;;;8.10;93.20;;;;;;5012018;28;20860;-84
2021/01/21 04:50:10;;;;;;;2.03;1.60;;;8.10;93.10;;;;;;5013029;28;20854;-82
2021/01/21 04:52:39;;;;;;;1.17;1.00;;;8.10;93.00;;;;;;5014142;28;20494;-85
2021/01/21 04:55:10;;;;;;;0.90;0.90;;;8.20;93.10;;;;;;5013203;28;20530;-83
2021/01/21 04:57:43;;;;;;;1.17;1.00;;;8.10;93.20;;;;;;5012619;28;20482;-85
2021/01/21 05:00:13;;;;;;;1.67;0.90;;;8.20;92.90;;;;;;5013202;28;20553;-85
2021/01/21 05:02:41;;;;;;;1.67;1.10;;;8.20;93.00;;;;;;5011479;28;20816;-84
2021/01/21 05:05:11;;;;;;;0.77;0.70;;;8.20;92.50;;;;;;5012910;28;20450;-84
2021/01/21 05:07:39;;;;;;;0.90;0.80;;;8.20;92.70;;;;;;5012852;28;20458;-85
2021/01/21 05:10:07;;;;;;;0.70;0.70;;;8.20;92.30;;;;;;5012882;28;20549;-85
2021/01/21 05:12:33;;;;;;;0.80;0.70;;;8.30;92.00;;;;;;5012628;28;20491;-85
2021/01/21 05:15:00;;;;;;;0.90;0.80;;;8.60;91.50;;;;;;5012753;28;20541;-83
2021/01/21 05:17:27;;;;;;;1.07;1.00;;;8.70;91.20;;;;;;5010717;28;20453;-85
2021/01/21 05:19:54;;;;;;;2.00;0.93;;;8.80;91.40;;;;;;5012564;28;21012;-85
2021/01/21 05:22:22;;;;;;;1.20;1.00;;;8.90;91.30;;;;;;5012457;28;21059;-87
2021/01/21 05:24:49;;;;;;;0.70;0.70;;;9.00;90.80;;;;;;5012517;28;20537;-85
2021/01/21 05:27:17;;;;;;;1.20;0.67;;;9.10;90.70;;;;;;5012650;28;20818;-88
2021/01/21 05:29:45;;;;;;;0.70;0.60;;;9.20;90.50;;;;;;5012822;28;20454;-87
2021/01/21 05:32:13;;;;;;;0.63;0.63;;;9.30;90.20;;;;;;5011536;28;20477;-84
2021/01/21 05:34:39;;;;;;;1.13;0.83;;;9.40;90.00;;;;;;5012964;28;20490;-88
2021/01/21 05:37:09;;;;;;;1.43;0.60;;;9.40;90.10;;;;;;5014387;28;20545;-86
2021/01/21 05:39:37;;;;;;;3.13;0.80;;;9.40;90.30;;;;;;5016640;28;20446;-87
2021/01/21 05:42:06;;;;;;;2.40;0.67;;;9.40;90.00;;;;;;5015967;28;20581;-88
2021/01/21 05:44:32;;;;;;;0.70;0.70;;;9.50;89.70;;;;;;5015001;28;20482;-87
2021/01/21 05:47:02;;;;;;;1.53;0.70;;;9.50;89.90;;;;;;5015785;28;20542;-83
2021/01/21 05:49:28;;;;;;;0.70;0.70;;;9.60;89.60;;;;;;5016065;28;20508;-86
2021/01/21 05:51:56;;;;;;;0.93;0.63;;;9.60;89.40;;;;;;5015894;28;20465;-86
2021/01/21 05:54:24;;;;;;;1.30;0.80;;;9.60;89.90;;;;;;5015640;28;20580;-85
2021/01/21 05:56:54;;;;;;;1.70;0.77;;;9.60;89.50;;;;;;5015687;28;20464;-87
2021/01/21 05:59:21;;;;;;;0.87;0.80;;;9.70;89.20;;;;;;5015789;28;20488;-84
2021/01/21 06:01:48;;;;;;;2.40;1.17;;;9.70;88.90;;;;;;5015576;28;20830;-84
2021/01/21 06:04:15;;;;;;;1.50;0.60;;;9.80;88.00;;;;;;5015273;28;20886;-83
2021/01/21 06:06:42;;;;;;;1.70;1.53;;;9.80;88.10;;;;;;5015977;28;20454;-83
2021/01/21 06:09:15;;;;;;;0.60;0.60;;;9.80;89.10;;;;;;5015829;28;20489;-83
2021/01/21 06:11:43;;;;;;;0.67;0.67;;;9.70;89.20;;;;;;5015837;28;20538;-86
2021/01/21 06:14:12;;;;;;;1.10;0.90;;;9.70;89.40;;;;;;5015920;28;20439;-82
2021/01/21 06:16:39;;;;;;;1.87;1.20;;;9.70;89.50;;;;;;5015860;28;20486;-85
2021/01/21 06:19:05;;;;;;;1.20;1.10;;;9.80;88.40;;;;;;5013821;28;20450;-88
2021/01/21 06:21:34;;;;;;;1.37;0.90;;;9.90;87.70;;;;;;5015546;28;20494;-84
2021/01/21 06:24:04;;;;;;;7.67;2.33;;;9.90;87.70;;;;;;5015706;28;20872;-84
2021/01/21 06:26:41;;;;;;;2.20;1.50;;;9.90;87.70;;;;;;5015221;28;20496;-85
2021/01/21 06:29:15;;;;;;;2.73;1.40;;;10.00;86.80;;;;;;5015563;28;20545;-90
2021/01/21 06:31:42;;;;;;;1.00;0.90;;;9.90;88.10;;;;;;5013701;28;20537;-83
2021/01/21 06:34:11;;;;;;;1.00;1.00;;;10.00;86.80;;;;;;5014288;28;20478;-85
2021/01/21 06:36:43;;;;;;;2.40;1.30;;;9.90;87.90;;;;;;5015543;28;20494;-84
2021/01/21 06:39:15;;;;;;;1.73;1.30;;;9.90;88.40;;;;;;4980587;28;20458;-84
2021/01/21 06:41:45;;;;;;;2.43;1.10;;;9.90;87.70;;;;;;5015351;28;21028;-84
2021/01/21 06:44:16;;;;;;;2.47;1.57;;;9.90;88.10;;;;;;5015651;28;20458;-84
2021/01/21 06:46:46;;;;;;;1.90;1.67;;;10.00;86.10;;;;;;5015574;28;20869;-83
2021/01/21 06:49:14;;;;;;;4.60;2.43;;;10.00;86.20;;;;;;5013359;28;20472;-84
2021/01/21 06:51:45;;;;;;;2.00;1.10;;;10.00;85.90;;;;;;5015344;28;20545;-85
2021/01/21 06:54:13;;;;;;;0.93;0.90;;;10.00;85.60;;;;;;5015413;28;20485;-84
2021/01/21 06:56:39;;;;;;;1.10;1.00;;;10.10;85.80;;;;;;5014838;28;20458;-83
2021/01/21 06:59:06;;;;;;;0.90;0.70;;;10.00;86.60;;;;;;5015496;28;20529;-85
2021/01/21 07:01:46;;;;;;;1.03;0.90;;;10.00;86.40;;;;;;5014574;28;20494;-85
2021/01/21 07:04:27;;;;;;;1.57;1.27;;;10.00;87.00;;;;;;5014333;28;20537;-84
2021/01/21 07:07:06;;;;;;;1.13;0.90;;;10.10;86.00;;;;;;5015341;28;20477;-84
2021/01/21 07:09:33;;;;;;;2.47;0.93;;;10.20;86.70;;;;;;5015817;28;20442;-84
2021/01/21 07:12:01;;;;;;;1.37;0.93;;;10.20;86.40;;;;;;5014609;28;20497;-84
2021/01/21 07:14:30;;;;;;;0.87;0.87;;;10.20;88.00;;;;;;5020007;28;20443;-82
2021/01/21 07:17:00;;;;;;;0.93;0.83;;;10.30;88.80;;;;;;5034559;28;20482;-85
2021/01/21 07:19:34;;;;;;;1.23;0.73;;;10.30;89.00;;;;;;5027907;28;20526;-83
2021/01/21 07:22:11;;;;;;;0.70;0.70;;;10.40;90.00;;;;;;5017921;28;20498;-85
2021/01/21 07:24:48;;;;;;;1.40;1.30;;;10.30;90.40;;;;;;5037053;28;20458;-86
2021/01/21 07:27:17;;;;;;;1.07;0.80;;;10.30;90.90;;;;;;5036664;28;20446;-84
2021/01/21 07:29:44;;;;;;;1.20;1.03;;;10.40;91.40;;;;;;5026675;28;20446;-85
2021/01/21 07:32:11;;;;;;;1.40;0.97;;;10.40;92.50;;;;;;5017880;28;20517;-86
2021/01/21 07:34:45;;;;;;;0.60;0.60;;;10.50;92.50;;;;;;5016036;28;20490;-86
2021/01/21 07:37:27;;;;;;;1.43;0.87;;;10.50;92.70;;;;;;5014487;28;20450;-85
2021/01/21 07:40:15;;;;;;;1.13;0.80;;;10.70;93.10;;;;;;5014327;28;20466;-84
2021/01/21 07:42:50;;;;;;;1.20;0.73;;;10.60;93.40;;;;;;5014132;28;20823;-89
2021/01/21 07:45:29;;;;;;;0.70;0.70;;;10.60;93.40;;;;;;5014793;28;20457;-89
2021/01/21 07:48:19;;;;;;;0.90;0.70;;;10.60;94.00;;;;;;5013673;28;20915;-90
2021/01/21 07:50:46;;;;;;;1.00;0.90;;;10.80;93.50;;;;;;5006353;28;20464;-86
2021/01/21 07:53:36;;;;;;;3.67;0.87;;;10.80;93.50;;;;;;5013675;28;20581;-83
2021/01/21 07:56:05;;;;;;;0.60;0.60;;;10.90;93.30;;;;;;5014415;28;20465;-91
2021/01/21 07:58:36;;;;;;;1.10;1.00;;;10.90;93.20;;;;;;5013792;28;20448;-85
2021/01/21 08:01:06;;;;;;;0.97;0.90;;;10.90;93.30;;;;;;5013025;28;20497;-83
2021/01/21 08:03:35;;;;;;;1.90;1.10;;;10.90;93.30;;;;;;5012782;28;20458;-83
2021/01/21 08:06:03;;;;;;;1.20;1.10;;;10.90;93.20;;;;;;5013697;28;20828;-84
2021/01/21 08:08:30;;;;;;;0.60;0.60;;;11.00;93.60;;;;;;5013685;28;20442;-87
2021/01/21 08:11:02;;;;;;;0.80;0.80;;;11.10;93.10;;;;;;5013929;28;20449;-87
2021/01/21 08:13:28;;;;;;;0.80;0.70;;;11.10;93.20;;;;;;5014807;28;20517;-86
2021/01/21 08:15:55;;;;;;;0.70;0.70;;;11.20;93.00;;;;;;5013834;28;20491;-85
2021/01/21 08:18:21;;;;;;;1.27;0.70;;;11.20;93.00;;;;;;5012932;28;20509;-91
2021/01/21 08:20:49;;;;;;;1.23;0.93;;;11.20;92.80;;;;;;5013802;28;20969;-87
2021/01/21 08:23:16;;;;;;;1.23;1.13;;;11.40;92.80;;;;;;5013857;28;20450;-88
2021/01/21 08:25:44;;;;;;;0.83;0.80;;;11.40;92.70;;;;;;5013782;28;20498;-84
2021/01/21 08:28:14;;;;;;;0.97;0.87;;;11.50;93.20;;;;;;5013548;28;20450;-88
2021/01/21 08:30:40;;;;;;;1.10;1.00;;;11.50;93.00;;;;;;5014727;28;20481;-88
2021/01/21 08:33:10;;;;;;;2.00;1.07;;;11.50;93.10;;;;;;5012791;28;20454;-86
2021/01/21 08:35:43;;;;;;;1.23;1.03;;;11.50;93.20;;;;;;5013532;28;20477;-88
2021/01/21 08:38:14;;;;;;;0.67;0.50;;;11.60;93.30;;;;;;5013118;28;20549;-85
2021/01/21 08:40:42;;;;;;;0.93;0.83;;;11.60;93.30;;;;;;5013144;28;20461;-85
2021/01/21 08:43:09;;;;;;;1.03;0.70;;;11.60;94.20;;;;;;5013026;28;20977;-85
2021/01/21 08:45:36;;;;;;;1.80;0.70;;;11.70;93.90;;;;;;5013349;28;20554;-84
2021/01/21 08:48:03;;;;;;;1.60;0.53;;;11.80;93.80;;;;;;5012286;28;20457;-87
2021/01/21 08:50:37;;;;;;;1.50;0.93;;;12.00;94.10;;;;;;5013569;28;20814;-87
2021/01/21 08:53:07;;;;;;;0.60;0.60;;;12.10;94.00;;;;;;5013175;28;20481;-90
2021/01/21 08:55:38;;;;;;;0.80;0.70;;;12.20;94.00;;;;;;5013314;28;20451;-90
2021/01/21 08:58:05;;;;;;;1.33;0.67;;;12.30;94.00;;;;;;5013335;28;20461;-86
2021/01/21 09:00:33;;;;;;;0.70;0.70;;;12.50;94.50;;;;;;5013390;28;20513;-83
2021/01/21 09:03:00;;;;;;;0.60;0.50;;;12.50;94.00;;;;;;5012362;28;20531;-87
2021/01/21 09:05:27;;;;;;;0.90;0.57;;;12.60;93.60;;;;;;5013274;28;20455;-85
2021/01/21 09:08:05;;;;;;;1.10;1.00;;;12.60;93.40;;;;;;5013277;28;20500;-87
2021/01/21 09:10:45;;;;;;;2.13;0.70;;;12.50;93.40;;;;;;5013286;28;20837;-93
2021/01/21 09:13:12;;;;;;;0.87;0.87;;;12.50;93.80;;;;;;5016808;28;20551;-84
2021/01/21 09:15:52;;;;;;;1.23;1.17;;;12.50;93.40;;;;;;5016797;28;20472;-86
2021/01/21 09:18:20;;;;;;;1.17;0.60;;;12.70;93.40;;;;;;5015455;28;20967;-84
2021/01/21 09:20:47;;;;;;;2.50;0.90;;;12.80;93.50;;;;;;5017273;28;20923;-87
2021/01/21 09:23:14;;;;;;;0.60;0.60;;;12.80;93.60;;;;;;5017166;28;20794;-81
2021/01/21 09:25:43;;;;;;;1.43;0.60;;;12.80;93.00;;;;;;5014743;28;20576;-83
2021/01/21 09:28:11;;;;;;;0.80;0.80;;;13.00;93.40;;;;;;5016234;28;20548;-83
2021/01/21 09:30:38;;;;;;;0.60;0.50;;;13.00;92.80;;;;;;5019442;28;20551;-84
2021/01/21 09:33:05;;;;;;;0.90;0.70;;;13.10;93.10;;;;;;5013995;28;20552;-82
2021/01/21 09:35:31;;;;;;;0.70;0.50;;;13.30;93.00;;;;;;5016389;28;20485;-81
2021/01/21 09:37:59;;;;;;;1.03;0.70;;;13.40;93.20;;;;;;5016170;28;20544;-79
2021/01/21 09:40:28;;;;;;;0.60;0.60;;;13.30;92.80;;;;;;5016200;28;20460;-86
2021/01/21 09:42:57;;;;;;;1.10;1.00;;;13.30;92.90;;;;;;5015583;28;20508;-81
2021/01/21 09:45:24;;;;;;;0.87;0.60;;;13.20;93.00;;;;;;5016482;28;20467;-82
2021/01/21 09:47:51;;;;;;;0.93;0.57;;;13.00;93.30;;;;;;5014684;28;20459;-79
2021/01/21 09:50:19;;;;;;;0.90;0.80;;;12.80;93.60;;;;;;5016569;28;20491;-78
2021/01/21 09:52:45;;;;;;;1.13;0.80;;;12.70;93.80;;;;;;5015783;28;20922;-80
2021/01/21 09:55:12;;;;;;;0.70;0.70;;;12.70;94.20;;;;;;5016090;28;20459;-77
2021/01/21 09:57:39;;;;;;;0.90;0.73;;;12.50;94.20;;;;;;5015768;28;20593;-78
2021/01/21 10:00:09;;;;;;;0.53;0.53;;;12.40;94.60;;;;;;5014736;28;20476;-80
2021/01/21 10:02:35;;;;;;;0.60;0.57;;;12.30;94.60;;;;;;5014567;28;20871;-80
2021/01/21 10:05:01;;;;;;;1.00;0.80;;;12.30;94.70;;;;;;5016105;28;20908;-77
2021/01/21 10:07:28;;;;;;;1.37;0.90;;;12.40;94.40;;;;;;5015829;28;20541;-83
2021/01/21 10:09:54;;;;;;;0.53;0.53;;;12.50;94.50;;;;;;5016162;28;20551;-82
2021/01/21 10:12:21;;;;;;;0.90;0.90;;;12.60;94.50;;;;;;5015998;28;20963;-81
2021/01/21 10:14:48;;;;;;;1.23;1.00;;;12.60;94.30;;;;;;5015549;28;20565;-80
2021/01/21 10:17:15;;;;;;;0.97;0.77;;;12.70;94.30;;;;;;5014399;28;20512;-78
2021/01/21 10:19:41;;;;;;;0.90;0.63;;;12.80;94.40;;;;;;5015629;28;20538;-79
2021/01/21 10:22:08;;;;;;;0.60;0.60;;;12.90;94.20;;;;;;5015175;28;20870;-82
2021/01/21 10:24:35;;;;;;;1.80;0.80;;;13.00;94.20;;;;;;5015650;28;20539;-82
2021/01/21 10:27:01;;;;;;;1.60;1.50;;;13.10;94.00;;;;;;5014633;28;20557;-82
2021/01/21 10:29:28;;;;;;;3.13;0.80;;;13.20;94.10;;;;;;5015702;28;20533;-81
2021/01/21 10:31:54;;;;;;;0.60;0.60;;;13.20;93.60;;;;;;5013276;28;20954;-79
2021/01/21 10:34:23;;;;;;;0.80;0.63;;;13.20;93.60;;;;;;5015641;28;20483;-84
2021/01/21 10:36:49;;;;;;;0.73;0.73;;;13.40;93.60;;;;;;5015510;28;20453;-82
2021/01/21 10:39:16;;;;;;;0.80;0.80;;;13.60;93.70;;;;;;5015953;28;20485;-78
2021/01/21 10:41:42;;;;;;;1.00;0.80;;;13.80;93.40;;;;;;5012746;28;20495;-77
2021/01/21 10:44:10;;;;;;;2.20;0.70;;;14.00;93.10;;;;;;5014732;28;20481;-77
2021/01/21 10:46:36;;;;;;;0.60;0.60;;;14.00;92.90;;;;;;5014483;28;20470;-77
2021/01/21 10:49:03;;;;;;;1.37;0.70;;;14.10;93.30;;;;;;5013731;28;20468;-79
2021/01/21 10:51:30;;;;;;;1.43;0.70;;;14.00;92.60;;;;;;5014854;28;20487;-78
2021/01/21 10:53:56;;;;;;;1.13;0.70;;;13.90;92.90;;;;;;5014658;28;20504;-82
2021/01/21 10:56:23;;;;;;;1.23;0.70;;;13.90;93.20;;;;;;5014240;28;20549;-79
2021/01/21 10:58:49;;;;;;;0.80;0.80;;;14.00;93.20;;;;;;5014880;28;20453;-81
2021/01/21 11:01:15;;;;;;;0.40;0.40;;;14.00;93.10;;;;;;5013613;28;20584;-78
2021/01/21 11:03:42;;;;;;;0.87;0.80;;;13.90;92.70;;;;;;5013451;28;20491;-79
2021/01/21 11:06:08;;;;;;;2.67;1.17;;;13.90;93.20;;;;;;5014716;28;20460;-81
2021/01/21 11:08:36;;;;;;;1.17;0.67;;;13.80;93.20;;;;;;5015475;28;20963;-81
2021/01/21 11:11:02;;;;;;;1.90;0.70;;;13.90;93.50;;;;;;5014408;28;20478;-80
2021/01/21 11:13:32;;;;;;;1.13;1.03;;;14.10;93.20;;;;;;5014900;28;20528;-80
2021/01/21 11:16:00;;;;;;;0.70;0.70;;;14.20;93.40;;;;;;5014796;28;20461;-78
2021/01/21 11:18:27;;;;;;;0.50;0.50;;;14.20;93.10;;;;;;5013210;28;20458;-81
2021/01/21 11:20:53;;;;;;;0.80;0.70;;;14.20;93.20;;;;;;5014300;28;20470;-78
2021/01/21 11:23:20;;;;;;;1.17;0.80;;;14.10;93.30;;;;;;5015188;28;21044;-78
2021/01/21 11:25:48;;;;;;;0.73;0.73;;;14.40;93.00;;;;;;5014977;28;20544;-82
2021/01/21 11:28:20;;;;;;;0.80;0.80;;;14.40;93.40;;;;;;5015069;28;20470;-79
2021/01/21 11:30:47;;;;;;;1.20;0.70;;;14.40;93.10;;;;;;5016006;28;20462;-78
2021/01/21 11:33:13;;;;;;;1.20;1.00;;;14.10;93.10;;;;;;5015442;28;20458;-78
2021/01/21 11:35:40;;;;;;;1.87;1.17;;;14.10;93.50;;;;;;5020441;28;20458;-79
2021/01/21 11:38:06;;;;;;;0.90;0.67;;;14.00;93.30;;;;;;5015828;28;20436;-77
2021/01/21 11:40:33;;;;;;;1.17;0.90;;;13.90;93.80;;;;;;5016644;28;20549;-76
2021/01/21 11:43:01;;;;;;;0.80;0.60;;;13.70;93.60;;;;;;5014338;28;20940;-79
2021/01/21 11:45:28;;;;;;;0.80;0.60;;;13.80;93.90;;;;;;4997021;28;20458;-77
2021/01/21 11:47:54;;;;;;;1.13;0.67;;;13.80;93.90;;;;;;5012870;28;20453;-81
2021/01/21 11:50:20;;;;;;;3.13;1.30;;;13.80;93.50;;;;;;5013787;28;20515;-77
2021/01/21 11:52:47;;;;;;;0.70;0.60;;;13.80;93.80;;;;;;5013802;28;20524;-75
2021/01/21 11:55:14;;;;;;;1.10;0.90;;;13.80;93.80;;;;;;5013875;28;20549;-76
2021/01/21 11:57:42;;;;;;;0.80;0.67;;;13.80;93.60;;;;;;5013843;28;20450;-80
2021/01/21 12:00:11;;;;;;;0.77;0.70;;;14.00;93.50;;;;;;5013674;28;20548;-76
2021/01/21 12:02:38;;;;;;;0.70;0.70;;;13.90;93.50;;;;;;5011301;28;20586;-78
2021/01/21 12:05:05;;;;;;;1.43;0.70;;;13.80;93.40;;;;;;5013480;28;20553;-77
2021/01/21 12:07:31;;;;;;;0.60;0.60;;;13.90;93.70;;;;;;5013712;28;20572;-77
2021/01/21 12:09:58;;;;;;;0.60;0.60;;;13.80;93.40;;;;;;5013793;28;20552;-76
2021/01/21 12:12:24;;;;;;;0.97;0.80;;;14.00;93.50;;;;;;5013853;28;20460;-77
2021/01/21 12:14:51;;;;;;;0.90;0.90;;;14.00;93.60;;;;;;5013869;28;20485;-77
2021/01/21 12:17:18;;;;;;;1.13;0.63;;;14.00;93.60;;;;;;5013393;28;20465;-79
2021/01/21 12:19:45;;;;;;;1.00;0.90;;;13.90;93.30;;;;;;5013593;28;20443;-77
2021/01/21 12:22:11;;;;;;;0.70;0.70;;;13.80;93.20;;;;;;5013837;28;20732;-78
2021/01/21 12:24:37;;;;;;;0.60;0.60;;;13.80;93.20;;;;;;5013353;28;20454;-79
2021/01/21 12:27:04;;;;;;;1.27;0.73;;;14.00;93.30;;;;;;5013279;28;20553;-85
2021/01/21 12:29:30;;;;;;;0.70;0.60;;;14.00;92.80;;;;;;5012747;28;20454;-81
2021/01/21 12:31:57;;;;;;;1.10;0.90;;;14.00;93.00;;;;;;5010855;28;20947;-80
2021/01/21 12:34:26;;;;;;;0.70;0.60;;;13.90;93.00;;;;;;5011999;28;20892;-82
2021/01/21 12:36:52;;;;;;;1.47;1.30;;;13.80;93.30;;;;;;4977104;28;20556;-78
2021/01/21 12:39:19;;;;;;;1.73;1.00;;;13.90;93.40;;;;;;5012133;28;20875;-78
2021/01/21 12:41:45;;;;;;;1.20;0.87;;;13.80;93.40;;;;;;5012052;28;21068;-83
2021/01/21 12:44:12;;;;;;;0.60;0.60;;;13.80;93.30;;;;;;5010881;28;20450;-83
2021/01/21 12:46:38;;;;;;;1.33;0.60;;;13.80;93.20;;;;;;5010885;28;20531;-86
2021/01/21 12:49:05;;;;;;;1.00;0.70;;;13.70;93.30;;;;;;5010652;28;20541;-83
2021/01/21 12:51:32;;;;;;;2.50;1.20;;;13.80;93.70;;;;;;5011756;28;20561;-80
2021/01/21 12:53:59;;;;;;;0.70;0.70;;;13.90;93.50;;;;;;5011637;28;20901;-79
2021/01/21 12:56:25;;;;;;;1.13;0.90;;;14.00;93.30;;;;;;5010833;28;20473;-80
2021/01/21 12:58:51;;;;;;;1.30;0.90;;;14.10;93.20;;;;;;5012138;28;20450;-78